createdAt,value
2022-10-05T00:00:29.847Z,6.34
2022-10-05T00:03:17.693Z,6.38
2022-10-05T00:05:45.998Z,6.33
2022-10-05T00:08:18.569Z,6.28
2022-10-05T00:10:46.763Z,6.26
2022-10-05T00:13:16.196Z,6.25
2022-10-05T00:15:44.451Z,6.22
2022-10-05T00:18:16.909Z,6.22
2022-10-05T00:20:45.247Z,6.19
2022-10-05T00:23:20.167Z,6.19
2022-10-05T00:25:48.043Z,6.19
2022-10-05T00:28:18.224Z,6.13
2022-10-05T00:30:46.185Z,6.19
2022-10-05T00:33:14.311Z,6.14
2022-10-05T00:35:42.257Z,6.08
2022-10-05T00:38:10.101Z,6.06
2022-10-05T00:40:47.049Z,6.09
2022-10-05T00:43:15.078Z,5.99
2022-10-05T00:46:03.208Z,5.90
2022-10-05T00:48:37.211Z,5.95
2022-10-05T00:51:23.457Z,5.93
2022-10-05T00:53:59.659Z,5.95
2022-10-05T00:56:28.280Z,5.98
2022-10-05T00:59:08.636Z,5.99
2022-10-05T01:01:55.275Z,5.93
2022-10-05T01:04:41.798Z,5.90
2022-10-05T01:07:12.646Z,5.94
2022-10-05T01:09:43.578Z,5.89
2022-10-05T01:12:26.761Z,5.90
2022-10-05T01:15:13.110Z,5.95
2022-10-05T01:18:03.297Z,5.91
2022-10-05T01:20:51.398Z,5.82
2022-10-05T01:23:19.164Z,5.79
2022-10-05T01:25:54.998Z,5.86
2022-10-05T01:28:28.358Z,5.85
2022-10-05T01:31:17.596Z,5.88
2022-10-05T01:33:45.525Z,5.89
2022-10-05T01:36:34.783Z,5.91
2022-10-05T01:39:04.065Z,5.92
2022-10-05T01:41:40.701Z,5.94
2022-10-05T01:44:08.581Z,5.94
2022-10-05T01:46:44.000Z,5.92
2022-10-05T01:49:12.183Z,5.96
2022-10-05T01:51:39.993Z,5.97
2022-10-05T01:54:30.557Z,5.97
2022-10-05T01:57:01.506Z,5.94
2022-10-05T01:59:36.570Z,5.96
2022-10-05T02:02:10.208Z,5.97
2022-10-05T02:05:01.563Z,5.96
2022-10-05T02:07:38.793Z,6.00
2022-10-05T02:10:23.940Z,6.00
2022-10-05T02:12:55.380Z,6.02
2022-10-05T02:15:27.375Z,6.06
2022-10-05T02:17:59.581Z,6.02
2022-10-05T02:20:29.062Z,6.05
2022-10-05T02:23:00.350Z,6.03
2022-10-05T02:25:30.701Z,5.99
2022-10-05T02:28:04.394Z,6.05
2022-10-05T02:30:35.048Z,6.05
2022-10-05T02:33:07.673Z,6.08
2022-10-05T02:35:35.622Z,6.08
2022-10-05T02:38:29.632Z,6.12
2022-10-05T02:41:06.601Z,6.08
2022-10-05T02:43:40.268Z,6.09
2022-10-05T02:46:08.772Z,6.05
2022-10-05T02:48:44.690Z,6.07
2022-10-05T02:51:15.567Z,6.07
2022-10-05T02:53:51.730Z,6.09
2022-10-05T02:56:26.586Z,6.14
2022-10-05T02:59:03.431Z,6.16
2022-10-05T03:01:44.532Z,6.18
2022-10-05T03:04:27.894Z,6.19
2022-10-05T03:07:04.887Z,6.21
2022-10-05T03:09:37.356Z,6.21
2022-10-05T03:12:18.115Z,6.23
2022-10-05T03:14:54.087Z,6.20
2022-10-05T03:17:28.783Z,6.16
2022-10-05T03:19:59.860Z,6.12
2022-10-05T03:22:33.925Z,6.08
2022-10-05T03:25:14.504Z,6.06
2022-10-05T03:27:49.103Z,6.03
2022-10-05T03:30:26.615Z,6.06
2022-10-05T03:33:30.008Z,6.04
2022-10-05T03:36:24.524Z,5.98
2022-10-05T03:39:02.106Z,5.98
2022-10-05T03:41:36.248Z,5.98
2022-10-05T03:44:23.102Z,5.94
2022-10-05T03:46:59.985Z,5.94
2022-10-05T03:49:35.533Z,5.93
2022-10-05T03:52:12.623Z,5.95
2022-10-05T03:54:46.979Z,5.97
2022-10-05T03:57:20.730Z,5.98
2022-10-05T04:00:01.015Z,6.00
2022-10-05T04:02:36.927Z,5.99
2022-10-05T04:05:12.501Z,6.02
2022-10-05T04:07:46.947Z,6.07
2022-10-05T04:10:20.137Z,6.09
2022-10-05T04:12:51.288Z,6.12
2022-10-05T04:15:25.661Z,6.08
2022-10-05T04:18:00.842Z,6.08
2022-10-05T04:20:32.170Z,6.11
2022-10-05T04:23:19.198Z,6.15
2022-10-05T04:25:52.763Z,6.21
2022-10-05T04:28:40.088Z,6.27
2022-10-05T04:31:11.261Z,6.29
2022-10-05T04:33:39.340Z,6.34
2022-10-05T04:36:10.411Z,6.36
2022-10-05T04:38:57.270Z,6.38
2022-10-05T04:41:28.723Z,6.38
2022-10-05T04:44:06.100Z,6.39
2022-10-05T04:46:37.208Z,6.42
2022-10-05T04:49:05.134Z,6.47
2022-10-05T04:51:51.911Z,6.47
2022-10-05T04:54:43.627Z,6.50
2022-10-05T04:57:16.610Z,6.52
2022-10-05T04:59:55.524Z,6.56
2022-10-05T05:02:32.609Z,6.59
2022-10-05T05:05:05.509Z,6.70
2022-10-05T05:07:39.593Z,6.73
2022-10-05T05:10:22.621Z,6.85
2022-10-05T05:12:50.644Z,6.89
2022-10-05T05:15:21.877Z,6.95
2022-10-05T05:17:50.423Z,6.97
2022-10-05T05:20:21.103Z,6.99
2022-10-05T05:22:55.465Z,7.05
2022-10-05T05:25:24.253Z,7.12
2022-10-05T05:27:58.414Z,7.18
2022-10-05T05:30:27.080Z,7.28
2022-10-05T05:33:08.498Z,7.28
2022-10-05T05:35:36.443Z,7.20
2022-10-05T05:38:14.964Z,7.14
2022-10-05T05:40:48.970Z,7.30
2022-10-05T05:43:19.846Z,7.45
2022-10-05T05:46:14.780Z,7.52
2022-10-05T05:48:47.523Z,7.64
2022-10-05T05:51:18.586Z,7.75
2022-10-05T05:53:50.536Z,7.74
2022-10-05T05:56:27.152Z,7.90
2022-10-05T05:58:57.898Z,7.96
2022-10-05T06:01:33.672Z,8.06
2022-10-05T06:04:11.185Z,8.15
2022-10-05T06:06:41.485Z,8.27
2022-10-05T06:09:18.920Z,8.34
2022-10-05T06:12:09.072Z,8.45
2022-10-05T06:14:40.627Z,8.60
2022-10-05T06:17:21.534Z,8.66
2022-10-05T06:19:53.519Z,8.79
2022-10-05T06:22:28.152Z,8.87
2022-10-05T06:25:15.639Z,8.95
2022-10-05T06:27:57.984Z,9.10
2022-10-05T06:30:31.257Z,9.26
2022-10-05T06:33:10.427Z,9.44
2022-10-05T06:35:57.185Z,9.61
2022-10-05T06:38:43.072Z,9.73
2022-10-05T06:41:29.778Z,9.86
2022-10-05T06:44:06.391Z,10.01
2022-10-05T06:47:00.365Z,10.15
2022-10-05T06:50:08.050Z,10.32
2022-10-05T06:53:17.523Z,10.58
2022-10-05T06:56:04.622Z,10.76
2022-10-05T06:58:39.117Z,10.89
2022-10-05T07:01:10.668Z,11.03
2022-10-05T07:03:39.045Z,11.17
2022-10-05T07:06:13.925Z,11.14
2022-10-05T07:09:04.067Z,11.25
2022-10-05T07:11:57.376Z,11.37
2022-10-05T07:14:30.888Z,11.45
2022-10-05T07:17:22.847Z,11.51
2022-10-05T07:19:56.186Z,11.67
2022-10-05T07:22:42.724Z,11.82
2022-10-05T07:25:16.534Z,12.03
2022-10-05T07:28:03.389Z,12.25
2022-10-05T07:30:36.385Z,12.51
2022-10-05T07:33:12.306Z,12.65
2022-10-05T07:35:49.423Z,12.69
2022-10-05T07:38:25.113Z,12.81
2022-10-05T07:41:14.053Z,12.96
2022-10-05T07:44:00.876Z,13.02
2022-10-05T07:46:34.028Z,13.19
2022-10-05T07:49:03.458Z,13.37
2022-10-05T07:51:37.295Z,13.51
2022-10-05T07:54:15.175Z,13.60
2022-10-05T07:56:45.948Z,13.69
2022-10-05T07:59:20.891Z,13.83
2022-10-05T08:01:52.156Z,13.98
2022-10-05T08:04:24.253Z,14.11
2022-10-05T08:07:00.027Z,14.27
2022-10-05T08:09:28.050Z,14.34
2022-10-05T08:12:08.574Z,14.47
2022-10-05T08:14:55.193Z,14.54
2022-10-05T08:17:26.508Z,14.62
2022-10-05T08:20:00.594Z,14.70
2022-10-05T08:22:34.833Z,14.89
2022-10-05T08:25:04.072Z,14.98
2022-10-05T08:27:50.463Z,15.13
2022-10-05T08:30:19.140Z,15.28
2022-10-05T08:32:55.875Z,15.26
2022-10-05T08:35:37.787Z,15.03
2022-10-05T08:38:12.289Z,14.92
2022-10-05T08:40:51.684Z,14.80
2022-10-05T08:43:35.041Z,14.76
2022-10-05T08:46:03.315Z,14.85
2022-10-05T08:48:40.249Z,14.96
2022-10-05T08:51:26.938Z,15.11
2022-10-05T08:54:13.936Z,15.18
2022-10-05T08:56:44.910Z,15.23
2022-10-05T08:59:17.614Z,15.38
2022-10-05T09:02:04.078Z,15.44
2022-10-05T09:04:50.522Z,15.62
2022-10-05T09:07:45.389Z,15.75
2022-10-05T09:10:31.526Z,15.77
2022-10-05T09:13:16.673Z,15.78
2022-10-05T09:15:50.463Z,15.69
2022-10-05T09:18:24.200Z,15.58
2022-10-05T09:21:02.757Z,15.66
2022-10-05T09:23:39.276Z,15.68
2022-10-05T09:26:09.304Z,15.81
2022-10-05T09:28:40.309Z,15.86
2022-10-05T09:31:17.541Z,15.87
2022-10-05T09:34:02.597Z,15.91
2022-10-05T09:36:48.993Z,15.82
2022-10-05T09:39:40.586Z,15.85
2022-10-05T09:42:27.267Z,15.85
2022-10-05T09:45:17.770Z,15.87
2022-10-05T09:47:59.915Z,15.75
2022-10-05T09:50:32.249Z,15.83
2022-10-05T09:53:06.048Z,15.86
2022-10-05T09:55:39.416Z,15.87
2022-10-05T09:58:28.414Z,15.95
2022-10-05T10:01:09.749Z,15.90
2022-10-05T10:04:01.848Z,15.98
2022-10-05T10:06:29.721Z,16.04
2022-10-05T10:09:04.373Z,16.20
2022-10-05T10:11:32.302Z,16.05
2022-10-05T10:14:09.490Z,16.06
2022-10-05T10:16:50.803Z,16.04
2022-10-05T10:19:36.629Z,16.13
2022-10-05T10:22:10.892Z,15.90
2022-10-05T10:24:57.616Z,15.91
2022-10-05T10:27:36.293Z,16.06
2022-10-05T10:30:13.303Z,16.23
2022-10-05T10:33:00.067Z,16.32
2022-10-05T10:35:32.856Z,16.19
2022-10-05T10:38:06.823Z,15.92
2022-10-05T10:40:35.069Z,16.02
2022-10-05T10:43:22.421Z,16.06
2022-10-05T10:46:09.216Z,16.21
2022-10-05T10:48:43.170Z,16.30
2022-10-05T10:51:30.700Z,16.39
2022-10-05T10:54:04.611Z,16.42
2022-10-05T10:56:51.622Z,16.41
2022-10-05T10:59:27.974Z,16.47
2022-10-05T11:02:17.584Z,16.36
2022-10-05T11:04:57.780Z,16.54
2022-10-05T11:07:25.695Z,16.58
2022-10-05T11:09:53.857Z,16.76
2022-10-05T11:12:39.974Z,16.88
2022-10-05T11:15:28.153Z,17.00
2022-10-05T11:18:06.829Z,17.21
2022-10-05T11:21:13.544Z,17.41
2022-10-05T11:23:57.567Z,17.48
2022-10-05T11:26:44.087Z,17.49
2022-10-05T11:29:11.939Z,17.42
2022-10-05T11:31:45.766Z,17.37
2022-10-05T11:34:32.514Z,17.23
2022-10-05T11:37:09.740Z,17.07
2022-10-05T11:39:44.854Z,17.02
2022-10-05T11:42:15.861Z,17.07
2022-10-05T11:44:50.604Z,17.03
2022-10-05T11:47:24.466Z,17.15
2022-10-05T11:49:53.676Z,17.25
2022-10-05T11:52:26.850Z,17.26
2022-10-05T11:55:16.173Z,17.26
2022-10-05T11:57:58.502Z,17.25
2022-10-05T12:00:35.613Z,17.25
2022-10-05T12:03:16.683Z,17.28
2022-10-05T12:05:53.976Z,17.38
2022-10-05T12:08:27.932Z,17.28
2022-10-05T12:10:58.898Z,17.31
2022-10-05T12:13:38.731Z,17.38
2022-10-05T12:16:06.923Z,17.56
2022-10-05T12:18:46.820Z,17.68
2022-10-05T12:21:22.862Z,17.68
2022-10-05T12:23:57.752Z,17.43
2022-10-05T12:26:37.886Z,17.52
2022-10-05T12:29:26.488Z,17.60
2022-10-05T12:32:00.700Z,17.63
2022-10-05T12:34:48.835Z,17.47
2022-10-05T12:37:36.608Z,17.39
2022-10-05T12:40:08.614Z,17.46
2022-10-05T12:42:42.098Z,17.55
2022-10-05T12:45:20.658Z,17.53
2022-10-05T12:48:00.625Z,17.53
2022-10-05T12:50:35.308Z,17.49
2022-10-05T12:53:03.126Z,17.34
2022-10-05T12:55:40.228Z,17.38
2022-10-05T12:58:14.174Z,17.50
2022-10-05T13:00:53.230Z,17.36
2022-10-05T13:03:25.312Z,17.52
2022-10-05T13:06:02.437Z,17.66
2022-10-05T13:08:45.735Z,17.84
2022-10-05T13:11:17.070Z,17.90
2022-10-05T13:13:56.433Z,17.88
2022-10-05T13:16:40.738Z,17.97
2022-10-05T13:19:27.557Z,18.03
2022-10-05T13:22:01.722Z,17.96
2022-10-05T13:24:45.836Z,17.91
2022-10-05T13:27:27.757Z,17.91
2022-10-05T13:30:02.987Z,17.90
2022-10-05T13:32:34.384Z,17.92
2022-10-05T13:35:17.748Z,17.90
2022-10-05T13:38:06.683Z,17.94
2022-10-05T13:40:49.724Z,17.96
2022-10-05T13:43:23.948Z,17.79
2022-10-05T13:45:58.391Z,17.85
2022-10-05T13:48:41.473Z,17.81
2022-10-05T13:51:18.456Z,17.83
2022-10-05T13:53:49.345Z,17.69
2022-10-05T13:56:17.197Z,17.58
2022-10-05T13:58:51.918Z,17.44
2022-10-05T14:01:55.356Z,17.44
2022-10-05T14:04:24.787Z,17.45
2022-10-05T14:06:53.339Z,17.42
2022-10-05T14:09:31.741Z,17.37
2022-10-05T14:12:03.022Z,17.27
2022-10-05T14:14:42.656Z,17.14
2022-10-05T14:17:14.518Z,16.99
2022-10-05T14:19:46.621Z,16.80
2022-10-05T14:22:24.830Z,16.67
2022-10-05T14:25:07.860Z,16.65
2022-10-05T14:27:48.267Z,16.69
2022-10-05T14:30:16.111Z,16.67
2022-10-05T14:32:59.584Z,16.64
2022-10-05T14:35:29.394Z,16.66
2022-10-05T14:38:01.673Z,16.63
2022-10-05T14:40:29.621Z,16.63
2022-10-05T14:42:58.433Z,16.65
2022-10-05T14:45:29.851Z,16.60
2022-10-05T14:48:01.670Z,16.50
2022-10-05T14:50:30.946Z,16.40
2022-10-05T14:53:14.402Z,16.29
2022-10-05T14:55:45.398Z,16.18
2022-10-05T14:58:23.852Z,16.09
2022-10-05T15:00:59.703Z,15.96
2022-10-05T15:03:37.262Z,15.80
2022-10-05T15:06:06.272Z,15.68
2022-10-05T15:08:53.276Z,15.56
2022-10-05T15:11:46.618Z,15.41
2022-10-05T15:14:21.759Z,15.20
2022-10-05T15:16:58.819Z,15.04
2022-10-05T15:19:55.608Z,14.87
2022-10-05T15:22:26.701Z,14.71
2022-10-05T15:24:57.836Z,14.59
2022-10-05T15:27:37.204Z,14.46
2022-10-05T15:30:05.232Z,14.34
2022-10-05T15:32:56.438Z,14.24
2022-10-05T15:35:27.384Z,14.11
2022-10-05T15:37:59.859Z,13.99
2022-10-05T15:40:46.481Z,13.90
2022-10-05T15:43:17.386Z,13.75
2022-10-05T15:45:52.962Z,13.70
2022-10-05T15:48:25.428Z,13.63
2022-10-05T15:51:07.203Z,13.56
2022-10-05T15:53:43.663Z,13.47
2022-10-05T15:56:25.614Z,13.37
2022-10-05T15:58:55.598Z,13.30
2022-10-05T16:01:32.653Z,13.24
2022-10-05T16:04:04.858Z,13.14
2022-10-05T16:07:02.988Z,13.06
2022-10-05T16:09:43.202Z,12.95
2022-10-05T16:12:18.669Z,12.84
2022-10-05T16:15:07.885Z,12.74
2022-10-05T16:17:55.881Z,12.62
2022-10-05T16:20:23.904Z,12.53
2022-10-05T16:23:06.783Z,12.47
2022-10-05T16:25:53.452Z,12.39
2022-10-05T16:28:24.689Z,12.31
2022-10-05T16:30:58.858Z,12.21
2022-10-05T16:33:32.994Z,12.07
2022-10-05T16:36:05.205Z,11.97
2022-10-05T16:38:33.556Z,11.87
2022-10-05T16:41:04.234Z,11.79
2022-10-05T16:43:34.950Z,11.74
2022-10-05T16:46:10.305Z,11.69
2022-10-05T16:48:38.469Z,11.64
2022-10-05T16:51:07.617Z,11.60
2022-10-05T16:53:39.799Z,11.55
2022-10-05T16:56:15.751Z,11.48
2022-10-05T16:58:43.564Z,11.37
2022-10-05T17:01:29.768Z,11.34
2022-10-05T17:03:57.566Z,11.28
2022-10-05T17:06:31.570Z,11.20
2022-10-05T17:09:19.636Z,11.12
2022-10-05T17:11:50.212Z,11.01
2022-10-05T17:14:21.004Z,10.91
2022-10-05T17:17:04.509Z,10.82
2022-10-05T17:19:33.572Z,10.75
2022-10-05T17:22:20.471Z,10.73
2022-10-05T17:24:51.103Z,10.65
2022-10-05T17:27:50.831Z,10.55
2022-10-05T17:30:23.873Z,10.43
2022-10-05T17:32:57.836Z,10.37
2022-10-05T17:35:47.129Z,10.20
2022-10-05T17:38:14.938Z,10.20
2022-10-05T17:41:05.561Z,10.12
2022-10-05T17:43:34.050Z,10.06
2022-10-05T17:46:06.811Z,10.07
2022-10-05T17:48:44.184Z,9.98
2022-10-05T17:51:31.472Z,9.98
2022-10-05T17:54:18.220Z,9.94
2022-10-05T17:56:49.226Z,9.91
2022-10-05T17:59:35.613Z,9.94
2022-10-05T18:02:30.556Z,9.82
2022-10-05T18:05:05.198Z,9.80
2022-10-05T18:07:34.159Z,9.76
2022-10-05T18:10:17.416Z,9.70
2022-10-05T18:12:47.523Z,9.65
2022-10-05T18:15:21.271Z,9.59
2022-10-05T18:17:57.521Z,9.53
2022-10-05T18:20:31.643Z,9.50
2022-10-05T18:23:01.054Z,9.48
2022-10-05T18:25:39.226Z,9.46
2022-10-05T18:28:16.144Z,9.44
2022-10-05T18:31:02.933Z,9.45
2022-10-05T18:33:57.406Z,9.45
2022-10-05T18:36:38.192Z,9.46
2022-10-05T18:39:26.392Z,9.49
2022-10-05T18:42:03.553Z,9.50
2022-10-05T18:44:40.475Z,9.47
2022-10-05T18:47:08.276Z,9.40
2022-10-05T18:49:45.175Z,9.31
2022-10-05T18:52:23.000Z,9.28
2022-10-05T18:54:50.858Z,9.24
2022-10-05T18:57:22.189Z,9.26
2022-10-05T18:59:57.604Z,9.25
2022-10-05T19:02:36.466Z,9.22
2022-10-05T19:05:35.772Z,9.15
2022-10-05T19:08:22.710Z,9.20
2022-10-05T19:10:55.279Z,9.22
2022-10-05T19:13:29.129Z,9.18
2022-10-05T19:16:15.731Z,9.16
2022-10-05T19:18:52.779Z,9.18
2022-10-05T19:21:24.707Z,9.13
2022-10-05T19:23:58.747Z,9.10
2022-10-05T19:26:26.570Z,9.07
2022-10-05T19:29:13.144Z,9.03
2022-10-05T19:31:48.181Z,9.02
2022-10-05T19:34:34.406Z,9.01
2022-10-05T19:37:18.203Z,8.97
2022-10-05T19:40:03.515Z,8.91
2022-10-05T19:42:46.241Z,8.86
2022-10-05T19:45:46.309Z,8.85
2022-10-05T19:48:21.783Z,8.82
2022-10-05T19:50:54.759Z,8.78
2022-10-05T19:53:30.842Z,8.81
2022-10-05T19:56:10.870Z,8.86
2022-10-05T19:58:39.717Z,8.87
2022-10-05T20:01:07.913Z,8.92
2022-10-05T20:03:38.051Z,8.90
2022-10-05T20:06:06.791Z,8.92
2022-10-05T20:08:41.974Z,8.96
2022-10-05T20:11:17.241Z,9.00
2022-10-05T20:14:10.257Z,9.00
2022-10-05T20:16:56.427Z,8.94
2022-10-05T20:19:47.915Z,8.92
2022-10-05T20:22:36.589Z,9.01
2022-10-05T20:25:06.417Z,9.06
2022-10-05T20:27:36.803Z,9.07
2022-10-05T20:30:05.675Z,9.14
2022-10-05T20:32:34.024Z,9.11
2022-10-05T20:35:01.894Z,9.16
2022-10-05T20:37:30.244Z,9.17
2022-10-05T20:39:58.126Z,9.17
2022-10-05T20:42:26.752Z,9.15
2022-10-05T20:44:56.967Z,9.15
2022-10-05T20:47:25.877Z,9.13
2022-10-05T20:49:54.624Z,9.11
2022-10-05T20:52:23.273Z,9.12
2022-10-05T20:54:53.945Z,9.17
2022-10-05T20:57:24.018Z,9.18
2022-10-05T20:59:51.840Z,9.25
2022-10-05T21:02:19.705Z,9.22
2022-10-05T21:04:47.879Z,9.16
2022-10-05T21:07:16.634Z,9.11
2022-10-05T21:09:46.532Z,9.11
2022-10-05T21:12:14.605Z,9.04
2022-10-05T21:14:42.518Z,9.03
2022-10-05T21:17:12.044Z,9.13
2022-10-05T21:19:40.423Z,9.14
2022-10-05T21:22:09.321Z,9.21
2022-10-05T21:24:38.646Z,9.24
2022-10-05T21:27:07.214Z,9.28
2022-10-05T21:29:36.685Z,9.32
2022-10-05T21:32:08.641Z,9.34
2022-10-05T21:34:36.994Z,9.35
2022-10-05T21:37:04.923Z,9.40
2022-10-05T21:39:33.824Z,9.39
2022-10-05T21:42:06.656Z,9.31
2022-10-05T21:44:34.483Z,9.28
2022-10-05T21:47:02.569Z,9.28
2022-10-05T21:49:31.182Z,9.24
2022-10-05T21:52:00.886Z,9.26
2022-10-05T21:54:28.947Z,9.25
2022-10-05T21:56:57.562Z,9.26
2022-10-05T21:59:27.925Z,9.26
2022-10-05T22:01:55.786Z,9.23
2022-10-05T22:04:23.951Z,9.21
2022-10-05T22:06:51.810Z,9.20
2022-10-05T22:09:19.814Z,9.18
2022-10-05T22:11:48.218Z,9.15
2022-10-05T22:14:16.179Z,9.13
2022-10-05T22:16:44.214Z,9.06
2022-10-05T22:19:16.693Z,8.99
2022-10-05T22:21:44.711Z,8.95
2022-10-05T22:24:12.595Z,8.91
2022-10-05T22:26:42.140Z,8.87
2022-10-05T22:29:09.969Z,8.88
2022-10-05T22:31:43.022Z,8.89
2022-10-05T22:34:11.071Z,8.84
2022-10-05T22:36:38.975Z,8.89
2022-10-05T22:39:06.831Z,8.92
2022-10-05T22:41:34.952Z,8.92
2022-10-05T22:44:03.139Z,8.86
2022-10-05T22:46:31.405Z,8.89
2022-10-05T22:48:59.570Z,8.89
2022-10-05T22:51:27.412Z,8.88
2022-10-05T22:53:55.320Z,8.81
2022-10-05T22:56:23.246Z,8.74
2022-10-05T22:58:51.461Z,8.66
2022-10-05T23:01:19.765Z,8.64
2022-10-05T23:03:47.812Z,8.58
2022-10-05T23:06:19.074Z,8.54
2022-10-05T23:08:47.183Z,8.52
2022-10-05T23:11:17.429Z,8.44
2022-10-05T23:13:45.274Z,8.39
2022-10-05T23:16:14.500Z,8.35
2022-10-05T23:18:42.711Z,8.30
2022-10-05T23:21:11.549Z,8.29
2022-10-05T23:23:40.466Z,8.29
2022-10-05T23:26:23.897Z,8.30
2022-10-05T23:28:51.950Z,8.28
2022-10-05T23:31:21.893Z,8.24
2022-10-05T23:33:49.894Z,8.23
2022-10-05T23:36:19.380Z,8.17
2022-10-05T23:38:47.623Z,8.17
2022-10-05T23:41:19.991Z,8.20
2022-10-05T23:43:48.181Z,8.20
2022-10-05T23:46:17.680Z,8.23
2022-10-05T23:48:45.750Z,8.17
2022-10-05T23:51:15.557Z,8.15
2022-10-05T23:53:44.018Z,8.17
2022-10-05T23:56:13.013Z,8.18
2022-10-05T23:58:41.128Z,8.16
